Bancroft, West Virginia
Current Conditions -  °F | °C
As of 6:54 PM on Tuesday 25 Nov 2014 (Local Time) from KCRW Reporting Station
Overcast Overcast  
Wind Chill: 48°   Ceiling: 18000
Heat Index: 48°   Visibility: 10mi
Dew Point: 26°   Wind: 0mph
Humidity: 42%   Direction: NA
Pressure: 30.1"   Gusts: NA
Location:  38.51°N, 81.84°W
Report Text: KCRW 252354Z 00000KT 10SM OVC180 09/M03 A3010 RMK AO2 SLP196 T00891033 10128 20089 53015
Loading
Personal Weather Stations






























Interactive Weather Map New forecast layout! Learn more

10-Day Weather Forecast

Advertisements
Track Severe Weather on mobile